الصفحة الرئيسية
METAR-TAF:

METAR-TAF

مطار :

فيجاياوادا, الهند

دائرة عرض: 16-31-44N, خط طول: 80-47-45E, ارتفاع: 25 متر

مراقبة الطقس الحالي

تاريخ ووقت الإصدار 7ساعات و 31 دقيقة قبل الساعة 15:30UTC
ريح 2 عقدة من الجنوب/الجنوب الشرقي
درجة الحرارة 32°درجة مئوية
الرطوبة 63%
ضغط 1005 hPa
الرؤية: 6000 متر
غيوم قليلة على ارتفاع 2000 قدم
غيوم قليلة على ارتفاع 10000 قدم

METAR: VOBZ 031530Z 15002KT 6000 FEW020 FEW100 32/24 Q1005 NOSIG

زمن: 04:31 (23:01 UTC)

توقعات

تاريخ ووقت الإصدار 15ساعات و 1 دقيقة قبل الساعة 08:00UTC
التوقعات صالحة من03 الساعة 09 UTC إلى 03 الساعة 18 UTC
ريح 8 عقدة من الجنوب/الجنوب الغربي
الرؤية: 6000 متر
غيوم متفرقة على ارتفاع 1500 قدم
غيوم متفرقة على ارتفاع 2500 قدم
مؤقت
من 03 الساعة 14 UTC إلى 03 الساعة 18 UTC
غيوم قليلة على ارتفاع 3000 قدم, مزن ركامية عمودية.
غيوم مفككة على ارتفاع 8000 قدم

TAF: VOBZ 030800Z 0309/0318 21008KT 6000 SCT015 SCT025 TEMPO 0314/0318 FEW030TCU BKN080

أرصاد الطقس والتوقعات من أكثر من 4000 مطار (تقارير الطقس للمطار METAR والتنبؤ بالطقس بالمطارTAF).

المحطات المتاحة هي النقط الصفراء والحمراء على الخريطة.

حرك المؤشر فوق النقطة لمعرفة اسم المحطة.

ثم انقر لمعرفة أرصاد وتوقعات الطقس.

لتغيير الخارطة: اضغط على الأزرار الخضراء مع رمز الصليب الأسود للتكبير. على الزر الأخضر مع شرطة للتصغير، أو على الأسهم الخضراء للخرائط المجاورة.


METAR-TAF: